Time;durP1;ratioP1;P1;durP2;ratioP2;P2;SDS_P1;SDS_P2;PMS_P1;PMS_P2;Temp;Humidity;BMP_temperature;BMP_pressure;BME280_temperature;BME280_humidity;BME280_pressure;Samples;Min_cycle;Max_cycle;Signal;HPM_P1;HPM_P2
2021/05/11 00:01:07;;;;;;;2.53;1.10;;;15.50;99.90;;;;;;5084404;28;20490;-74
2021/05/11 00:03:33;;;;;;;1.95;1.25;;;15.40;99.90;;;;;;5085376;28;20384;-73
2021/05/11 00:05:59;;;;;;;0.95;0.95;;;15.40;99.90;;;;;;5091685;28;20076;-74
2021/05/11 00:08:25;;;;;;;1.13;1.00;;;15.50;99.90;;;;;;5078078;28;20115;-72
2021/05/11 00:10:51;;;;;;;1.10;1.00;;;15.60;99.90;;;;;;5077325;28;20063;-71
2021/05/11 00:13:16;;;;;;;1.30;1.20;;;15.50;99.90;;;;;;5078626;28;20024;-73
2021/05/11 00:15:42;;;;;;;1.27;1.00;;;15.70;99.90;;;;;;5084625;28;20025;-73
2021/05/11 00:18:09;;;;;;;2.00;1.00;;;15.50;99.90;;;;;;5071402;28;20090;-73
2021/05/11 00:20:35;;;;;;;3.83;1.02;;;15.30;99.90;;;;;;5069983;28;20052;-73
2021/05/11 00:23:00;;;;;;;0.90;0.90;;;15.30;99.90;;;;;;5070262;28;20533;-73
2021/05/11 00:25:26;;;;;;;1.98;0.90;;;15.40;99.90;;;;;;5078735;28;20020;-73
2021/05/11 00:27:51;;;;;;;1.30;0.98;;;15.40;99.90;;;;;;5076681;28;20055;-73
2021/05/11 00:30:17;;;;;;;1.00;0.85;;;15.30;99.90;;;;;;5084577;28;20025;-74
2021/05/11 00:32:43;;;;;;;1.52;1.00;;;15.30;99.90;;;;;;5083629;28;20392;-74
2021/05/11 00:35:08;;;;;;;1.00;0.90;;;15.30;99.90;;;;;;5085158;28;20025;-74
2021/05/11 00:37:36;;;;;;;2.63;1.10;;;15.40;99.90;;;;;;5071152;28;20492;-74
2021/05/11 00:40:03;;;;;;;1.63;0.90;;;15.60;99.90;;;;;;5072206;28;20027;-74
2021/05/11 00:42:28;;;;;;;2.15;1.10;;;15.60;99.90;;;;;;5075182;28;20063;-74
2021/05/11 00:44:54;;;;;;;1.60;0.93;;;15.20;99.90;;;;;;5073953;28;20484;-73
2021/05/11 00:47:19;;;;;;;1.20;1.10;;;15.10;99.90;;;;;;5086891;28;20026;-74
2021/05/11 00:49:45;;;;;;;1.95;1.15;;;14.90;99.90;;;;;;5088888;28;20029;-74
2021/05/11 00:52:11;;;;;;;0.90;0.80;;;15.00;99.90;;;;;;5088784;28;20098;-74
2021/05/11 00:54:37;;;;;;;1.55;0.95;;;14.70;99.90;;;;;;5075032;28;20369;-73
2021/05/11 00:57:04;;;;;;;1.10;1.00;;;14.90;99.90;;;;;;5073449;28;20107;-73
2021/05/11 00:59:30;;;;;;;1.95;0.90;;;14.90;99.90;;;;;;5074782;28;20090;-75
2021/05/11 01:01:57;;;;;;;2.17;1.23;;;15.10;99.90;;;;;;5073408;28;20484;-74
2021/05/11 01:04:24;;;;;;;1.33;1.00;;;15.10;99.90;;;;;;5074818;28;20043;-74
2021/05/11 01:06:50;;;;;;;2.55;0.90;;;15.10;99.90;;;;;;5074508;28;20124;-74
2021/05/11 01:09:16;;;;;;;1.15;1.05;;;15.20;99.90;;;;;;5073305;28;20020;-74
2021/05/11 01:11:42;;;;;;;1.42;1.08;;;15.20;99.90;;;;;;5074644;28;20508;-74
2021/05/11 01:14:09;;;;;;;1.30;1.10;;;15.10;99.90;;;;;;5074669;28;20032;-74
2021/05/11 01:16:35;;;;;;;1.17;1.08;;;15.20;99.90;;;;;;5074962;28;20032;-74
2021/05/11 01:19:12;;;;;;;1.45;1.08;;;15.10;99.90;;;;;;5087151;28;20547;-74
2021/05/11 01:21:55;;;;;;;2.80;1.20;;;15.10;99.90;;;;;;5088058;28;20024;-74
2021/05/11 01:24:31;;;;;;;1.38;1.10;;;15.20;99.90;;;;;;5086157;28;20106;-74
2021/05/11 01:27:09;;;;;;;1.00;0.93;;;15.00;99.90;;;;;;5073723;28;20119;-73
2021/05/11 01:32:51;;;;;;;1.88;0.90;;;14.80;99.90;;;;;;5085044;28;20032;-74
2021/05/11 02:11:12;;;;;;;1.63;0.90;;;14.90;99.90;;;;;;5080545;28;20089;-73
2021/05/11 02:18:03;;;;;;;1.02;1.00;;;14.80;99.90;;;;;;5093741;28;20035;-72
2021/05/11 02:24:39;;;;;;;2.15;0.98;;;14.70;99.90;;;;;;5074392;28;20039;-73
2021/05/11 02:27:05;;;;;;;1.63;0.90;;;14.90;99.90;;;;;;5085936;28;20028;-72
2021/05/11 02:29:30;;;;;;;2.08;1.05;;;14.90;99.90;;;;;;5072453;28;20025;-72
2021/05/11 02:31:56;;;;;;;1.10;1.00;;;14.90;99.90;;;;;;5085840;28;20400;-72
2021/05/11 02:34:22;;;;;;;0.93;0.90;;;14.90;99.90;;;;;;5073160;28;20024;-72
2021/05/11 02:36:47;;;;;;;1.67;1.10;;;14.90;99.90;;;;;;5073047;28;20035;-73
2021/05/11 02:39:13;;;;;;;2.35;1.10;;;14.80;99.90;;;;;;5072770;28;20032;-73
2021/05/11 02:41:41;;;;;;;1.30;1.20;;;14.70;99.90;;;;;;5080211;28;20031;-73
2021/05/11 02:44:07;;;;;;;1.23;1.10;;;14.70;99.90;;;;;;5079701;28;20017;-73
2021/05/11 02:46:32;;;;;;;1.60;1.38;;;14.60;99.90;;;;;;5093005;28;20024;-73
2021/05/11 02:48:59;;;;;;;1.67;1.10;;;14.70;99.90;;;;;;5093040;28;20028;-74
2021/05/11 02:51:24;;;;;;;1.40;1.30;;;14.70;99.90;;;;;;5093042;28;20031;-73
2021/05/11 02:53:50;;;;;;;2.17;1.23;;;14.70;99.90;;;;;;5078684;28;20029;-73
2021/05/11 02:56:16;;;;;;;1.35;1.25;;;14.50;99.90;;;;;;5072656;28;20025;-73
2021/05/11 02:58:43;;;;;;;2.15;1.40;;;14.50;99.90;;;;;;5072427;28;20056;-73
2021/05/11 03:01:08;;;;;;;2.17;1.10;;;14.40;99.90;;;;;;5072414;28;20020;-73
2021/05/11 03:03:34;;;;;;;1.35;1.02;;;14.50;99.90;;;;;;5072377;28;20702;-73
2021/05/11 03:05:59;;;;;;;1.10;1.00;;;14.20;99.90;;;;;;5077996;28;20066;-73
2021/05/11 03:08:25;;;;;;;2.78;1.05;;;13.80;99.90;;;;;;5077933;28;20055;-73
2021/05/11 03:10:50;;;;;;;1.27;1.17;;;13.70;99.90;;;;;;5077468;28;20491;-73
2021/05/11 03:13:16;;;;;;;1.60;1.13;;;13.70;99.90;;;;;;5092684;28;20023;-73
2021/05/11 03:15:41;;;;;;;1.10;1.00;;;13.90;99.90;;;;;;5072557;28;20503;-74
2021/05/11 03:18:07;;;;;;;1.65;1.30;;;14.00;99.90;;;;;;5085778;28;20110;-75
2021/05/11 03:20:32;;;;;;;1.10;1.00;;;14.10;99.90;;;;;;5085921;28;20036;-74
2021/05/11 03:22:58;;;;;;;1.23;1.10;;;14.10;99.90;;;;;;5085252;28;20142;-74
2021/05/11 03:25:24;;;;;;;2.50;1.20;;;14.10;99.90;;;;;;5072889;28;20016;-74
2021/05/11 03:27:49;;;;;;;1.40;1.30;;;14.20;99.90;;;;;;5072057;28;20028;-74
2021/05/11 03:30:15;;;;;;;2.22;1.25;;;14.30;99.90;;;;;;5091476;28;20507;-72
2021/05/11 03:32:41;;;;;;;2.70;1.20;;;13.60;99.90;;;;;;5092294;28;20043;-72
2021/05/11 03:35:06;;;;;;;1.10;1.10;;;13.30;99.90;;;;;;5078708;28;20491;-73
2021/05/11 03:37:32;;;;;;;1.55;1.13;;;13.30;99.90;;;;;;5079762;28;20033;-75
2021/05/11 03:39:58;;;;;;;2.75;1.40;;;13.60;99.90;;;;;;5071859;28;20021;-75
2021/05/11 03:42:31;;;;;;;1.08;0.98;;;13.80;99.90;;;;;;5084215;28;20028;-73
2021/05/11 03:45:00;;;;;;;1.70;1.30;;;14.00;99.90;;;;;;5085539;28;20013;-73
2021/05/11 03:47:27;;;;;;;1.38;1.27;;;14.00;99.90;;;;;;5071820;28;20086;-73
2021/05/11 03:49:53;;;;;;;1.10;1.00;;;14.00;99.90;;;;;;5071690;28;20472;-73
2021/05/11 03:52:18;;;;;;;3.65;1.30;;;14.00;99.90;;;;;;5085395;28;20040;-73
2021/05/11 03:54:44;;;;;;;1.27;1.17;;;14.00;99.90;;;;;;5071725;28;20063;-73
2021/05/11 03:57:10;;;;;;;1.20;1.10;;;13.90;99.90;;;;;;5086857;28;20368;-73
2021/05/11 03:59:36;;;;;;;1.35;1.25;;;14.00;99.90;;;;;;5083349;28;20150;-73
2021/05/11 04:02:02;;;;;;;3.45;1.70;;;14.10;99.90;;;;;;5083983;28;20411;-73
2021/05/11 04:04:28;;;;;;;1.48;1.35;;;14.10;99.90;;;;;;5071650;28;20017;-73
2021/05/11 04:06:53;;;;;;;1.40;1.30;;;14.20;99.90;;;;;;5086578;28;20053;-72
2021/05/11 04:09:29;;;;;;;1.67;1.23;;;14.30;99.90;;;;;;5091620;28;20020;-73
2021/05/11 04:12:09;;;;;;;1.40;1.30;;;13.90;99.90;;;;;;5091806;28;20028;-73
2021/05/11 04:16:12;;;;;;;1.67;1.58;;;13.60;99.90;;;;;;5079964;28;20032;-73
2021/05/11 04:17:29;;;;;;;3.60;1.50;;;13.00;99.90;;;;;;5079772;28;20030;-73
2021/05/11 04:19:54;;;;;;;6.40;1.50;;;13.20;99.90;;;;;;5076504;28;20033;-72
2021/05/11 04:22:19;;;;;;;2.20;1.25;;;13.60;99.90;;;;;;5078417;28;20475;-72
2021/05/11 04:24:45;;;;;;;2.28;1.10;;;13.90;99.90;;;;;;5078141;28;20029;-72
2021/05/11 04:27:10;;;;;;;3.38;1.30;;;14.00;99.90;;;;;;5083524;28;20055;-73
2021/05/11 04:29:36;;;;;;;1.50;1.40;;;14.20;99.90;;;;;;5085880;28;20551;-73
2021/05/11 04:32:02;;;;;;;2.80;1.20;;;14.20;99.90;;;;;;5083772;28;20032;-73
2021/05/11 04:34:27;;;;;;;1.92;1.13;;;14.00;99.90;;;;;;5072410;28;20116;-74
2021/05/11 04:36:53;;;;;;;2.20;1.20;;;14.20;99.90;;;;;;5079454;28;20043;-73
2021/05/11 04:39:18;;;;;;;1.77;1.40;;;14.40;99.90;;;;;;5077255;28;20107;-73
2021/05/11 04:41:44;;;;;;;2.08;1.30;;;14.30;99.90;;;;;;5071247;28;20506;-72
2021/05/11 04:44:10;;;;;;;3.17;1.50;;;14.30;99.90;;;;;;5071318;28;20017;-72
2021/05/11 04:46:44;;;;;;;2.33;1.25;;;13.80;99.90;;;;;;5071205;28;20021;-72
2021/05/11 04:49:09;;;;;;;2.53;1.35;;;13.20;99.90;;;;;;5071774;28;20032;-72
2021/05/11 04:51:35;;;;;;;2.33;1.27;;;13.00;99.90;;;;;;5090054;28;20106;-72
2021/05/11 04:54:00;;;;;;;1.92;1.25;;;13.10;99.90;;;;;;5075659;28;20691;-72
2021/05/11 04:56:26;;;;;;;1.90;1.30;;;13.50;99.90;;;;;;5071057;28;20095;-72
2021/05/11 04:58:52;;;;;;;2.88;1.65;;;13.70;99.90;;;;;;5084375;28;20039;-72
2021/05/11 05:01:17;;;;;;;1.60;1.50;;;13.60;99.90;;;;;;5079835;28;20024;-72
2021/05/11 05:03:44;;;;;;;6.50;1.77;;;13.70;99.90;;;;;;5091170;28;20031;-72
2021/05/11 05:06:09;;;;;;;2.15;1.77;;;13.80;99.90;;;;;;5091064;28;20108;-72
2021/05/11 05:08:35;;;;;;;2.25;1.70;;;13.70;99.90;;;;;;5089977;28;20050;-72
2021/05/11 05:11:01;;;;;;;2.38;1.67;;;13.80;99.90;;;;;;5091003;28;20064;-72
2021/05/11 05:13:26;;;;;;;2.95;2.17;;;13.90;99.90;;;;;;5089837;28;20028;-72
2021/05/11 05:15:56;;;;;;;6.15;2.30;;;14.10;99.90;;;;;;5081122;28;20065;-72
2021/05/11 05:18:23;;;;;;;2.10;1.80;;;14.30;99.90;;;;;;5069434;28;20028;-72
2021/05/11 05:20:50;;;;;;;3.15;2.10;;;14.30;99.90;;;;;;5069021;28;20488;-73
2021/05/11 05:23:18;;;;;;;3.55;2.00;;;14.60;99.90;;;;;;5070916;28;20554;-72
2021/05/11 05:25:52;;;;;;;2.03;1.70;;;14.50;99.90;;;;;;5079353;28;20050;-72
2021/05/11 05:28:18;;;;;;;2.70;1.83;;;14.50;99.90;;;;;;5081046;28;20024;-72
2021/05/11 05:30:44;;;;;;;3.83;2.05;;;14.20;99.90;;;;;;5083557;28;20029;-73
2021/05/11 05:33:09;;;;;;;2.78;1.90;;;13.90;99.90;;;;;;5087955;28;20101;-73
2021/05/11 05:35:35;;;;;;;2.72;1.92;;;13.50;99.90;;;;;;5074232;28;20025;-73
2021/05/11 05:38:01;;;;;;;3.72;2.08;;;13.70;99.90;;;;;;5077599;28;20107;-72
2021/05/11 05:40:26;;;;;;;3.42;2.40;;;14.10;99.90;;;;;;5082451;28;20447;-72
2021/05/11 05:42:52;;;;;;;3.03;2.65;;;14.20;99.90;;;;;;5103530;28;20020;-72
2021/05/11 05:45:18;;;;;;;3.85;2.58;;;14.50;99.90;;;;;;5074186;28;20491;-72
2021/05/11 05:47:53;;;;;;;2.22;1.90;;;14.80;99.90;;;;;;5073925;28;20025;-73
2021/05/11 05:50:21;;;;;;;2.20;2.00;;;14.70;99.90;;;;;;5073886;28;20021;-72
2021/05/11 05:52:51;;;;;;;2.05;1.77;;;14.50;99.90;;;;;;5087666;28;20466;-72
2021/05/11 05:55:16;;;;;;;3.67;2.45;;;14.70;99.90;;;;;;5085548;28;20479;-72
2021/05/11 05:57:42;;;;;;;2.08;1.90;;;14.90;99.90;;;;;;5087753;28;20070;-72
2021/05/11 06:00:08;;;;;;;4.03;1.85;;;14.90;99.90;;;;;;5086432;28;20020;-72
2021/05/11 06:02:42;;;;;;;2.80;2.10;;;14.80;99.90;;;;;;5074330;28;20039;-72
2021/05/11 06:05:10;;;;;;;2.95;1.73;;;14.90;99.90;;;;;;5072403;28;20484;-72
2021/05/11 06:07:35;;;;;;;2.70;1.90;;;14.90;99.90;;;;;;5073556;28;20033;-73
2021/05/11 06:10:01;;;;;;;2.60;2.35;;;15.20;99.90;;;;;;5073326;28;20029;-72
2021/05/11 06:12:34;;;;;;;2.38;2.17;;;15.40;99.90;;;;;;5073612;28;20418;-72
2021/05/11 06:17:26;;;;;;;4.53;2.30;;;15.50;99.90;;;;;;5085985;28;20124;-73
2021/05/11 06:19:53;;;;;;;4.70;2.45;;;15.20;99.90;;;;;;5085140;28;20032;-73
2021/05/11 06:22:19;;;;;;;3.15;2.33;;;15.40;99.90;;;;;;5080012;28;20107;-74
2021/05/11 06:24:44;;;;;;;2.45;2.25;;;15.40;99.90;;;;;;5078070;28;20124;-74
2021/05/11 06:27:11;;;;;;;3.33;2.17;;;15.60;99.90;;;;;;5072524;28;20384;-73
2021/05/11 06:29:40;;;;;;;2.53;2.30;;;15.50;99.90;;;;;;5085926;28;20078;-73
2021/05/11 06:32:07;;;;;;;3.38;2.40;;;15.60;99.90;;;;;;5072695;28;20024;-72
2021/05/11 06:34:33;;;;;;;3.22;2.13;;;15.80;99.90;;;;;;5071377;28;20024;-73
2021/05/11 06:36:59;;;;;;;3.65;2.65;;;16.10;99.90;;;;;;5072281;28;20107;-73
2021/05/11 06:39:25;;;;;;;3.65;2.42;;;16.20;99.90;;;;;;5073853;28;20028;-74
2021/05/11 06:41:52;;;;;;;2.63;2.28;;;16.20;99.90;;;;;;5084693;28;20112;-73
2021/05/11 06:47:20;;;;;;;3.20;2.10;;;16.40;99.90;;;;;;5072211;28;20021;-73
2021/05/11 06:49:59;;;;;;;2.43;1.90;;;16.50;99.90;;;;;;5086063;28;20365;-73
2021/05/11 06:55:13;;;;;;;2.25;2.05;;;16.50;99.90;;;;;;5081183;28;20187;-73
2021/05/11 06:57:39;;;;;;;3.40;1.65;;;16.40;99.90;;;;;;5072143;28;20412;-74
2021/05/11 07:00:05;;;;;;;2.40;1.85;;;16.50;99.90;;;;;;5084612;28;20046;-74
2021/05/11 07:02:31;;;;;;;2.20;2.00;;;16.50;99.90;;;;;;5078875;28;20036;-73
2021/05/11 07:04:56;;;;;;;2.40;1.70;;;16.60;99.90;;;;;;5079995;28;20025;-73
2021/05/11 07:07:22;;;;;;;2.72;2.00;;;16.70;99.90;;;;;;5078053;28;20103;-73
2021/05/11 07:15:00;;;;;;;2.13;1.67;;;16.70;99.90;;;;;;5071908;28;20094;-73
2021/05/11 07:17:26;;;;;;;4.15;1.90;;;16.70;99.90;;;;;;5071396;28;20910;-73
2021/05/11 07:19:52;;;;;;;2.00;1.70;;;16.60;99.90;;;;;;5071619;28;20069;-72
2021/05/11 07:22:18;;;;;;;4.65;1.73;;;16.50;99.90;;;;;;5072168;28;20024;-73
2021/05/11 07:24:46;;;;;;;2.05;1.50;;;16.60;99.90;;;;;;5073746;28;20361;-73
2021/05/11 07:27:17;;;;;;;2.13;1.90;;;16.70;99.90;;;;;;5082878;28;20077;-72
2021/05/11 07:29:54;;;;;;;2.15;1.67;;;16.60;99.90;;;;;;5084998;28;20103;-73
2021/05/11 07:32:20;;;;;;;2.03;1.83;;;16.50;99.90;;;;;;5070615;28;20036;-73
2021/05/11 07:34:48;;;;;;;2.53;1.80;;;16.70;99.90;;;;;;5085731;28;20025;-75
2021/05/11 07:37:14;;;;;;;1.85;1.60;;;16.60;99.90;;;;;;5071911;28;20051;-73
2021/05/11 07:39:44;;;;;;;1.85;1.67;;;17.00;99.90;;;;;;5088748;28;20395;-73
2021/05/11 07:42:10;;;;;;;4.95;2.20;;;16.80;99.90;;;;;;5079199;28;20391;-74
2021/05/11 07:44:38;;;;;;;3.05;1.70;;;16.70;99.90;;;;;;5090287;28;20016;-73
2021/05/11 08:16:33;;;;;;;3.60;1.88;;;17.40;99.90;;;;;;5071573;28;20082;-74
2021/05/11 08:19:06;;;;;;;2.00;1.60;;;17.30;99.90;;;;;;5078144;28;20020;-73
2021/05/11 08:22:05;;;;;;;2.00;1.80;;;17.10;99.90;;;;;;5089156;28;20028;-74
2021/05/11 08:27:29;;;;;;;1.92;1.70;;;17.10;99.90;;;;;;5089364;28;20154;-73
2021/05/11 08:29:55;;;;;;;3.45;1.90;;;17.00;99.90;;;;;;5088445;28;20031;-73
2021/05/11 08:32:20;;;;;;;4.13;1.90;;;17.20;99.90;;;;;;5087570;28;20025;-73
2021/05/11 08:34:47;;;;;;;3.70;2.00;;;17.60;99.90;;;;;;5089170;28;20506;-73
2021/05/11 08:37:16;;;;;;;2.17;1.50;;;17.80;99.90;;;;;;5090908;28;20464;-73
2021/05/11 08:39:42;;;;;;;2.17;1.90;;;17.80;99.90;;;;;;5090471;28;20107;-73
2021/05/11 08:42:08;;;;;;;2.20;2.00;;;17.80;99.90;;;;;;5090979;28;20024;-73
2021/05/11 08:44:35;;;;;;;5.50;2.05;;;17.50;99.90;;;;;;5091034;28;20514;-74
2021/05/11 08:47:00;;;;;;;2.22;1.65;;;17.40;99.90;;;;;;5090719;28;20021;-73
2021/05/11 08:49:26;;;;;;;2.10;1.85;;;17.50;99.90;;;;;;5086848;28;20021;-73
2021/05/11 08:52:00;;;;;;;3.17;1.98;;;17.60;99.90;;;;;;5071092;28;20032;-75
2021/05/11 09:24:06;;;;;;;3.85;2.13;;;17.90;99.90;;;;;;5074046;28;20057;-73
2021/05/11 09:26:57;;;;;;;3.83;2.17;;;18.10;99.90;;;;;;5074700;28;20024;-73
2021/05/11 09:29:43;;;;;;;3.80;2.17;;;18.20;99.90;;;;;;5085641;28;20529;-73
2021/05/11 09:32:22;;;;;;;5.28;2.20;;;18.10;99.90;;;;;;5095128;28;20027;-73
2021/05/11 10:49:26;;;;;;;4.45;2.72;;;18.90;99.90;;;;;;5086439;28;20029;-73
2021/05/11 10:52:13;;;;;;;5.22;2.70;;;19.00;99.90;;;;;;5089425;28;20012;-73
2021/05/11 10:55:09;;;;;;;2.88;2.60;;;18.80;99.90;;;;;;5081465;28;20013;-73
2021/05/11 10:57:54;;;;;;;2.95;2.58;;;18.80;99.90;;;;;;5086094;28;20090;-73
2021/05/11 11:03:18;;;;;;;3.65;3.00;;;19.10;99.90;;;;;;5090828;28;20510;-73
2021/05/11 11:06:00;;;;;;;3.38;2.67;;;18.60;99.90;;;;;;5085020;28;20046;-73
2021/05/11 11:08:42;;;;;;;5.15;2.60;;;18.60;99.90;;;;;;5091845;28;20099;-73
2021/05/11 11:11:13;;;;;;;3.00;2.50;;;18.50;99.90;;;;;;5086517;28;20020;-73
2021/05/11 11:13:45;;;;;;;2.75;2.40;;;18.50;99.90;;;;;;5088821;28;20020;-73
2021/05/11 11:16:11;;;;;;;3.70;2.83;;;18.40;99.90;;;;;;5076759;28;20489;-73
2021/05/11 11:18:38;;;;;;;4.82;3.13;;;18.30;99.90;;;;;;5103392;28;20025;-74
2021/05/11 11:23:56;;;;;;;4.03;3.00;;;18.40;99.90;;;;;;5086490;28;20020;-73
2021/05/11 11:26:28;;;;;;;6.47;3.35;;;18.60;99.90;;;;;;5085659;28;20016;-73
2021/05/11 11:29:04;;;;;;;3.92;2.83;;;18.60;99.90;;;;;;5081986;28;20021;-73
2021/05/11 11:31:34;;;;;;;5.82;2.80;;;18.90;99.90;;;;;;5083513;28;20111;-73
2021/05/11 11:34:15;;;;;;;3.17;2.80;;;18.90;99.90;;;;;;5091068;28;20468;-74
2021/05/11 11:36:47;;;;;;;5.15;2.97;;;18.60;99.90;;;;;;5079998;28;20544;-73
2021/05/11 11:39:21;;;;;;;5.03;2.75;;;18.60;99.90;;;;;;5085061;28;20028;-73
2021/05/11 11:41:48;;;;;;;4.40;3.33;;;18.70;99.90;;;;;;5090861;28;20054;-73
2021/05/11 11:44:15;;;;;;;4.45;3.30;;;18.60;99.90;;;;;;5088799;28;20020;-73
2021/05/11 11:46:41;;;;;;;3.67;2.95;;;18.60;99.90;;;;;;5091026;28;20472;-73
2021/05/11 11:49:12;;;;;;;5.13;3.50;;;18.80;99.90;;;;;;5085282;28;20024;-73
2021/05/11 11:51:38;;;;;;;10.52;3.72;;;18.80;99.90;;;;;;5087312;28;20091;-73
2021/05/11 11:54:32;;;;;;;4.55;2.95;;;19.00;99.90;;;;;;5088431;28;20027;-74
2021/05/11 11:59:52;;;;;;;3.00;2.40;;;19.20;99.90;;;;;;5086629;28;20024;-73
2021/05/11 12:02:18;;;;;;;4.07;2.72;;;19.50;99.90;;;;;;5097440;28;20048;-73
2021/05/11 12:04:47;;;;;;;3.95;2.90;;;19.20;99.90;;;;;;5086036;28;20044;-73
2021/05/11 12:07:15;;;;;;;4.88;3.03;;;19.00;99.90;;;;;;5087184;28;20032;-73
2021/05/11 12:09:41;;;;;;;5.93;2.88;;;19.00;99.90;;;;;;5088441;28;20403;-73
2021/05/11 12:12:10;;;;;;;3.90;2.53;;;19.20;99.90;;;;;;5086487;28;20016;-73
2021/05/11 12:14:37;;;;;;;4.10;2.80;;;19.00;99.90;;;;;;5088827;28;20089;-72
2021/05/11 12:17:03;;;;;;;5.78;2.90;;;19.00;99.90;;;;;;5089909;28;20097;-72
2021/05/11 12:19:30;;;;;;;5.50;2.80;;;19.00;99.90;;;;;;5091130;28;20480;-72
2021/05/11 12:22:06;;;;;;;2.95;2.65;;;19.10;99.90;;;;;;5091338;28;20020;-72
2021/05/11 12:24:34;;;;;;;5.90;3.03;;;18.90;99.90;;;;;;5101138;28;20091;-72
2021/05/11 12:27:15;;;;;;;5.55;3.30;;;19.00;99.90;;;;;;5106077;28;20099;-72
2021/05/11 12:29:59;;;;;;;5.15;3.20;;;18.90;99.90;;;;;;5084107;28;20031;-72
2021/05/11 12:32:25;;;;;;;3.60;3.30;;;18.80;99.90;;;;;;5085392;28;20024;-72
2021/05/11 12:35:08;;;;;;;3.65;3.13;;;18.90;99.90;;;;;;5088004;28;20035;-72
2021/05/11 12:37:52;;;;;;;3.85;2.75;;;19.30;99.90;;;;;;5095368;28;20027;-72
2021/05/11 12:40:37;;;;;;;6.55;3.50;;;19.40;99.90;;;;;;5088413;28;20016;-72
2021/05/11 12:43:02;;;;;;;4.82;2.97;;;19.20;99.90;;;;;;5110401;28;20058;-72
2021/05/11 12:45:34;;;;;;;3.13;2.83;;;19.20;99.90;;;;;;5095436;28;20451;-72
2021/05/11 12:48:02;;;;;;;6.93;3.75;;;19.10;99.90;;;;;;5094482;28;20015;-72
2021/05/11 12:50:39;;;;;;;3.78;3.38;;;19.00;99.90;;;;;;5087615;28;20069;-72
2021/05/11 12:53:30;;;;;;;4.95;3.00;;;19.20;99.90;;;;;;5083018;28;20487;-72
2021/05/11 12:58:32;;;;;;;4.30;3.22;;;19.20;99.90;;;;;;5088996;28;20024;-72
2021/05/11 13:01:07;;;;;;;4.00;2.92;;;19.00;99.90;;;;;;5094917;28;20020;-72
2021/05/11 13:17:07;;;;;;;4.38;2.75;;;19.40;99.90;;;;;;5084692;28;20056;-72
2021/05/11 13:32:52;;;;;;;3.08;2.78;;;19.20;99.90;;;;;;5088036;28;20055;-72
2021/05/11 13:35:18;;;;;;;4.28;3.10;;;19.20;99.90;;;;;;5082950;28;20020;-73
2021/05/11 13:37:44;;;;;;;3.60;3.30;;;19.20;99.90;;;;;;5093216;28;20591;-72
2021/05/11 13:40:10;;;;;;;7.20;2.83;;;19.30;99.90;;;;;;5094324;28;20078;-73
2021/05/11 13:42:36;;;;;;;3.85;3.15;;;19.40;99.90;;;;;;5094315;28;20099;-72
2021/05/11 13:45:03;;;;;;;3.72;3.13;;;19.00;99.90;;;;;;5094433;28;20027;-72
2021/05/11 13:47:29;;;;;;;4.80;3.58;;;18.90;99.90;;;;;;5089901;28;20020;-72
2021/05/11 13:49:58;;;;;;;6.10;3.58;;;19.00;99.90;;;;;;5073953;28;20032;-73
2021/05/11 13:52:23;;;;;;;6.18;3.22;;;18.80;99.90;;;;;;5087829;28;20024;-73
2021/05/11 13:54:55;;;;;;;4.88;3.50;;;19.00;99.90;;;;;;5073901;28;20023;-72
2021/05/11 13:57:30;;;;;;;4.78;3.78;;;18.70;99.90;;;;;;5073880;28;20028;-72
2021/05/11 14:02:45;;;;;;;4.97;3.22;;;19.00;99.90;;;;;;5073635;28;20414;-72
2021/05/11 14:05:11;;;;;;;3.50;3.00;;;18.90;99.90;;;;;;5073846;28;20507;-73
2021/05/11 14:07:36;;;;;;;4.93;3.25;;;18.90;99.90;;;;;;5073580;28;20158;-72
2021/05/11 14:10:04;;;;;;;7.38;3.67;;;19.00;99.90;;;;;;5073421;28;20040;-72
2021/05/11 14:12:30;;;;;;;5.07;3.63;;;18.80;99.90;;;;;;5073614;28;20036;-72
2021/05/11 14:14:55;;;;;;;4.25;3.83;;;18.70;99.90;;;;;;5073785;28;20025;-72
2021/05/11 14:17:21;;;;;;;4.70;3.90;;;18.70;99.90;;;;;;5086723;28;20035;-72
2021/05/11 14:19:47;;;;;;;5.80;4.07;;;18.50;99.90;;;;;;5073145;28;20024;-72
2021/05/11 14:22:13;;;;;;;4.93;4.32;;;18.40;99.90;;;;;;5072043;28;20016;-73
2021/05/11 14:24:39;;;;;;;5.72;5.22;;;18.20;99.90;;;;;;5084165;28;20364;-72
2021/05/11 14:27:06;;;;;;;6.47;5.40;;;18.10;99.90;;;;;;5079871;28;20020;-72
2021/05/11 14:29:31;;;;;;;6.05;5.35;;;17.90;99.90;;;;;;5093401;28;20055;-72
2021/05/11 14:31:57;;;;;;;5.70;5.20;;;17.90;99.90;;;;;;5093486;28;20078;-72
2021/05/11 14:34:24;;;;;;;6.15;5.55;;;18.00;99.90;;;;;;5093524;28;20047;-72
2021/05/11 14:36:50;;;;;;;7.38;6.18;;;17.90;99.90;;;;;;5087315;28;20020;-72
2021/05/11 14:39:16;;;;;;;6.95;6.32;;;17.90;99.90;;;;;;5071695;28;20036;-73
2021/05/11 14:41:41;;;;;;;7.20;5.78;;;17.90;99.90;;;;;;5086592;28;20039;-73
2021/05/11 14:44:07;;;;;;;7.28;6.57;;;17.90;99.90;;;;;;5071744;28;20476;-72
2021/05/11 14:46:32;;;;;;;6.32;5.72;;;18.10;99.90;;;;;;5090856;28;20054;-72
2021/05/11 14:48:58;;;;;;;9.00;6.38;;;18.00;99.90;;;;;;5091838;28;20021;-72
2021/05/11 14:51:24;;;;;;;7.57;6.20;;;17.80;99.90;;;;;;5089651;28;20031;-72
2021/05/11 14:53:50;;;;;;;7.20;6.50;;;18.00;99.90;;;;;;5088837;28;20028;-72
2021/05/11 14:56:16;;;;;;;9.02;6.90;;;17.90;99.90;;;;;;5090678;28;20024;-72
2021/05/11 14:58:44;;;;;;;7.63;6.93;;;18.00;99.90;;;;;;5090901;28;20020;-72
2021/05/11 15:01:10;;;;;;;9.48;6.70;;;18.00;99.90;;;;;;5087294;28;20547;-72
2021/05/11 15:03:36;;;;;;;7.25;6.47;;;17.90;99.90;;;;;;5078168;28;20447;-72
2021/05/11 15:06:01;;;;;;;7.03;6.43;;;17.90;99.90;;;;;;5072365;28;20031;-72
2021/05/11 15:08:27;;;;;;;8.45;6.82;;;17.70;99.90;;;;;;5072545;28;20103;-72
2021/05/11 15:10:52;;;;;;;9.25;6.47;;;17.50;99.90;;;;;;5072840;28;20036;-72
2021/05/11 15:13:19;;;;;;;7.25;6.30;;;17.50;99.90;;;;;;5073165;28;20016;-73
2021/05/11 15:15:50;;;;;;;7.38;6.60;;;17.40;99.90;;;;;;5084144;28;20107;-72
2021/05/11 15:18:16;;;;;;;8.50;7.15;;;17.40;99.90;;;;;;5086117;28;20047;-74
2021/05/11 15:20:41;;;;;;;8.45;7.40;;;17.20;99.90;;;;;;5078821;28;20440;-73
2021/05/11 15:23:08;;;;;;;7.25;6.45;;;17.10;99.90;;;;;;5078988;28;20078;-74
2021/05/11 15:25:34;;;;;;;7.53;6.82;;;17.10;99.90;;;;;;5083313;28;20031;-74
2021/05/11 15:28:01;;;;;;;8.88;7.32;;;17.10;99.90;;;;;;5085791;28;20016;-72
2021/05/11 15:30:28;;;;;;;8.63;7.75;;;17.10;99.90;;;;;;5080320;28;20070;-72
2021/05/11 15:32:56;;;;;;;9.23;8.30;;;17.10;99.90;;;;;;5078789;28;20431;-73
2021/05/11 15:35:29;;;;;;;9.73;8.73;;;17.00;99.90;;;;;;5083955;28;20660;-72
2021/05/11 15:37:59;;;;;;;9.98;8.90;;;16.90;99.90;;;;;;5085322;28;20408;-72
2021/05/11 15:40:26;;;;;;;10.32;9.43;;;17.00;99.90;;;;;;5092363;28;20016;-73
2021/05/11 15:42:52;;;;;;;9.32;8.43;;;16.90;99.90;;;;;;5076914;28;20047;-74
2021/05/11 15:45:19;;;;;;;11.27;9.77;;;16.90;99.90;;;;;;5086465;28;20020;-72
2021/05/11 15:48:08;;;;;;;11.20;10.20;;;16.80;99.90;;;;;;5088469;28;20103;-72
2021/05/11 15:50:34;;;;;;;12.18;10.30;;;17.00;99.90;;;;;;5086206;28;20177;-72
2021/05/11 15:53:02;;;;;;;11.50;10.38;;;16.70;99.90;;;;;;5087203;28;20392;-72
2021/05/11 15:55:32;;;;;;;11.90;10.23;;;16.80;99.90;;;;;;5091318;28;20476;-72
2021/05/11 15:57:58;;;;;;;12.82;10.82;;;16.60;99.90;;;;;;5084067;28;20094;-73
2021/05/11 16:00:24;;;;;;;13.77;12.38;;;16.60;99.90;;;;;;5090471;28;20023;-73
2021/05/11 16:02:50;;;;;;;13.65;12.18;;;16.60;99.90;;;;;;5084494;28;20025;-72
2021/05/11 16:05:22;;;;;;;13.80;12.50;;;16.70;99.90;;;;;;5090370;28;20029;-72
2021/05/11 16:07:48;;;;;;;14.05;12.65;;;16.60;99.90;;;;;;5088761;28;20028;-71
2021/05/11 16:10:16;;;;;;;14.23;12.70;;;16.60;99.90;;;;;;5085346;28;20087;-72
2021/05/11 16:12:42;;;;;;;13.63;12.27;;;16.60;99.90;;;;;;5085717;28;20020;-72
2021/05/11 16:15:14;;;;;;;14.27;12.20;;;16.70;99.90;;;;;;5089118;28;20031;-73
2021/05/11 16:17:39;;;;;;;14.60;12.43;;;16.70;99.90;;;;;;5084853;28;20024;-72
2021/05/11 16:20:07;;;;;;;15.43;13.20;;;16.80;99.90;;;;;;5091419;28;20028;-72
2021/05/11 16:22:33;;;;;;;14.60;13.07;;;16.80;99.90;;;;;;5088054;28;20054;-73
2021/05/11 16:24:59;;;;;;;14.15;12.68;;;16.70;99.90;;;;;;5090372;28;20475;-73
2021/05/11 16:27:25;;;;;;;14.85;12.95;;;16.70;99.90;;;;;;5086755;28;20020;-74
2021/05/11 16:29:51;;;;;;;13.70;12.30;;;16.70;99.90;;;;;;5080808;28;20392;-72
2021/05/11 16:32:17;;;;;;;15.50;13.05;;;16.80;99.90;;;;;;5090125;28;20031;-73
2021/05/11 16:34:43;;;;;;;13.93;12.43;;;16.80;99.90;;;;;;5087717;28;20035;-74
2021/05/11 16:37:10;;;;;;;14.43;12.93;;;16.80;99.90;;;;;;5083372;28;20020;-72
2021/05/11 16:39:36;;;;;;;15.48;13.27;;;16.70;99.90;;;;;;5087633;28;20087;-72
2021/05/11 16:42:02;;;;;;;15.40;13.75;;;16.70;99.90;;;;;;5090466;28;20031;-73
2021/05/11 16:44:28;;;;;;;13.35;11.93;;;16.70;99.90;;;;;;5086707;28;20024;-73
2021/05/11 16:46:54;;;;;;;15.43;13.13;;;16.60;99.90;;;;;;5089894;28;20145;-73
2021/05/11 16:49:20;;;;;;;14.07;12.65;;;16.50;99.90;;;;;;5084884;28;20107;-73